createdAt,value
2022-08-10T00:01:05.263Z,71.38
2022-08-10T00:09:56.272Z,71.61
2022-08-10T00:13:18.054Z,71.50
2022-08-10T00:15:55.819Z,71.58
2022-08-10T00:23:00.444Z,71.86
2022-08-10T00:25:38.883Z,72.16
2022-08-10T00:28:37.267Z,72.36
2022-08-10T00:31:10.202Z,72.60
2022-08-10T00:33:47.695Z,72.90
2022-08-10T00:36:49.705Z,73.20
2022-08-10T00:39:28.129Z,73.17
2022-08-10T00:42:28.867Z,73.22
2022-08-10T00:45:32.366Z,73.24
2022-08-10T00:48:10.573Z,73.47
2022-08-10T00:50:44.913Z,73.67
2022-08-10T00:53:18.983Z,74.08
2022-08-10T00:57:12.301Z,74.21
2022-08-10T00:59:20.023Z,74.34
2022-08-10T01:05:28.428Z,74.54
2022-08-10T01:08:26.286Z,74.74
2022-08-10T01:12:34.236Z,74.94
2022-08-10T01:14:51.976Z,75.17
2022-08-10T01:18:01.888Z,75.57
2022-08-10T01:21:57.394Z,75.51
2022-08-10T01:25:19.133Z,75.81
2022-08-10T01:27:59.873Z,76.04
2022-08-10T01:30:47.010Z,76.18
2022-08-10T01:33:59.050Z,76.27
2022-08-10T01:37:17.270Z,76.37
2022-08-10T01:43:12.212Z,76.69
2022-08-10T01:45:49.737Z,76.75
2022-08-10T01:48:33.401Z,77.09
2022-08-10T01:51:44.210Z,76.89
2022-08-10T01:54:45.477Z,76.87
2022-08-10T01:57:50.564Z,77.07
2022-08-10T02:00:49.014Z,77.11
2022-08-10T02:04:05.242Z,77.32
2022-08-10T02:06:55.476Z,77.55
2022-08-10T02:10:15.170Z,77.72
2022-08-10T02:13:13.288Z,77.88
2022-08-10T02:16:16.617Z,77.95
2022-08-10T02:18:56.530Z,78.20
2022-08-10T02:22:34.973Z,78.28
2022-08-10T02:24:59.689Z,78.24
2022-08-10T02:27:59.247Z,78.29
2022-08-10T02:30:33.922Z,78.44
2022-08-10T02:33:12.322Z,78.47
2022-08-10T02:36:20.550Z,78.70
2022-08-10T02:39:01.399Z,78.82
2022-08-10T02:42:18.359Z,78.91
2022-08-10T02:45:29.727Z,79.02
2022-08-10T02:52:07.540Z,79.69
2022-08-10T02:54:53.310Z,79.68
2022-08-10T02:58:17.281Z,79.87
2022-08-10T03:00:57.930Z,79.73
2022-08-10T03:06:58.440Z,79.81
2022-08-10T03:10:18.886Z,80.00
2022-08-10T03:12:59.823Z,80.16
2022-08-10T03:15:39.937Z,80.39
2022-08-10T03:18:18.083Z,80.43
2022-08-10T03:21:03.019Z,80.70
2022-08-10T03:23:37.182Z,80.90
2022-08-10T03:26:12.888Z,81.08
2022-08-10T03:28:47.654Z,81.18
2022-08-10T03:31:46.457Z,81.04
2022-08-10T03:37:59.222Z,81.27
2022-08-10T03:41:05.239Z,81.20
2022-08-10T03:43:44.506Z,81.29
2022-08-10T03:46:29.561Z,81.39
2022-08-10T03:52:53.246Z,81.30
2022-08-10T03:56:28.211Z,81.28
2022-08-10T04:04:33.464Z,81.26
2022-08-10T04:07:10.137Z,81.29
2022-08-10T04:10:31.078Z,81.34
2022-08-10T04:13:10.039Z,81.43
2022-08-10T04:15:58.343Z,81.42
2022-08-10T04:18:59.274Z,81.56
2022-08-10T04:22:07.362Z,81.95
2022-08-10T04:25:08.538Z,81.26
2022-08-10T04:27:48.974Z,80.62
2022-08-10T04:33:57.013Z,79.54
2022-08-10T04:37:20.471Z,79.23
2022-08-10T04:39:54.977Z,79.01
2022-08-10T04:49:01.946Z,78.43
2022-08-10T04:51:39.541Z,78.27
2022-08-10T04:54:41.926Z,78.08
2022-08-10T04:57:45.806Z,77.51
2022-08-10T05:01:10.695Z,77.22
2022-08-10T05:04:36.394Z,77.19
2022-08-10T05:07:08.936Z,77.04
2022-08-10T05:13:40.333Z,76.80
2022-08-10T05:16:31.544Z,76.47
2022-08-10T05:20:04.813Z,76.16
2022-08-10T05:22:38.345Z,75.91
2022-08-10T05:25:18.973Z,75.39
2022-08-10T05:28:17.419Z,74.77
2022-08-10T05:30:59.305Z,74.39
2022-08-10T05:33:59.164Z,74.33
2022-08-10T05:37:05.735Z,74.74
2022-08-10T05:40:25.106Z,74.54
2022-08-10T05:46:47.680Z,73.43
2022-08-10T05:49:21.369Z,73.24
2022-08-10T05:52:24.566Z,73.00
2022-08-10T05:55:26.809Z,72.78
2022-08-10T05:58:02.605Z,72.09
2022-08-10T06:02:31.748Z,71.47
2022-08-10T06:05:10.858Z,71.13
2022-08-10T06:08:14.270Z,70.79
2022-08-10T06:12:27.166Z,70.08
2022-08-10T06:14:33.101Z,69.33
2022-08-10T06:17:14.421Z,69.15
2022-08-10T06:19:54.770Z,68.44
2022-08-10T06:26:08.405Z,66.61
2022-08-10T06:32:16.368Z,65.05
2022-08-10T06:35:21.396Z,64.37
2022-08-10T06:38:19.446Z,63.83
2022-08-10T06:40:53.799Z,63.38
2022-08-10T06:43:39.577Z,63.18
2022-08-10T06:53:04.332Z,61.37
2022-08-10T06:59:32.022Z,60.43
2022-08-10T07:02:14.562Z,59.45
2022-08-10T07:05:59.093Z,59.24
2022-08-10T07:08:39.762Z,59.16
2022-08-10T07:14:19.029Z,58.19
2022-08-10T07:16:52.137Z,57.86
2022-08-10T07:19:26.368Z,57.88
2022-08-10T07:21:59.962Z,58.00
2022-08-10T07:24:34.529Z,57.03
2022-08-10T07:27:09.522Z,56.45
2022-08-10T07:29:54.233Z,56.42
2022-08-10T07:32:29.309Z,56.06
2022-08-10T07:35:03.476Z,56.04
2022-08-10T07:37:38.154Z,55.96
2022-08-10T07:40:13.020Z,56.15
2022-08-10T07:42:47.653Z,55.11
2022-08-10T07:45:19.784Z,54.84
2022-08-10T07:48:05.045Z,54.13
2022-08-10T07:50:42.414Z,53.41
2022-08-10T07:53:18.225Z,52.52
2022-08-10T07:56:04.417Z,51.28
2022-08-10T07:58:51.985Z,50.97
2022-08-10T08:01:33.742Z,50.84
2022-08-10T08:04:11.202Z,50.31
2022-08-10T08:06:46.201Z,49.72
2022-08-10T08:09:18.397Z,49.51
2022-08-10T08:11:50.958Z,49.53
2022-08-10T08:14:24.501Z,49.71
2022-08-10T08:16:57.878Z,49.70
2022-08-10T08:19:38.002Z,49.32
2022-08-10T08:24:06.416Z,48.95
2022-08-10T08:25:14.496Z,48.62
2022-08-10T08:27:53.250Z,48.51
2022-08-10T08:30:28.216Z,47.86
2022-08-10T08:33:04.174Z,47.19
2022-08-10T08:35:36.941Z,46.75
2022-08-10T08:38:33.407Z,46.79
2022-08-10T08:41:17.773Z,47.09
2022-08-10T08:44:00.795Z,45.79
2022-08-10T08:46:58.814Z,45.90
2022-08-10T08:50:08.951Z,45.83
2022-08-10T08:52:56.004Z,45.49
2022-08-10T08:56:04.857Z,45.35
2022-08-10T08:58:53.915Z,44.50
2022-08-10T09:01:41.200Z,44.51
2022-08-10T09:04:29.584Z,44.34
2022-08-10T09:08:01.963Z,44.52
2022-08-10T09:10:42.880Z,44.21
2022-08-10T09:13:27.034Z,44.04
2022-08-10T09:16:21.921Z,43.83
2022-08-10T09:18:57.921Z,42.95
2022-08-10T09:21:43.391Z,42.93
2022-08-10T09:24:38.052Z,42.87
2022-08-10T09:27:20.147Z,42.03
2022-08-10T09:29:57.554Z,41.73
2022-08-10T09:36:16.062Z,42.20
2022-08-10T09:36:21.265Z,42.07
2022-08-10T09:38:44.406Z,41.62
2022-08-10T09:41:32.688Z,42.00
2022-08-10T09:44:15.470Z,42.12
2022-08-10T09:47:08.266Z,42.05
2022-08-10T09:50:04.696Z,41.44
2022-08-10T09:52:45.485Z,41.57
2022-08-10T09:55:22.098Z,41.27
2022-08-10T09:58:32.533Z,41.12
2022-08-10T10:01:56.293Z,41.69
2022-08-10T10:04:12.024Z,41.89
2022-08-10T10:06:49.928Z,42.08
2022-08-10T10:09:27.192Z,41.12
2022-08-10T10:12:09.761Z,41.49
2022-08-10T10:15:25.179Z,41.82
2022-08-10T10:18:09.885Z,41.99
2022-08-10T10:20:46.531Z,41.85
2022-08-10T10:23:25.711Z,41.57
2022-08-10T10:26:10.591Z,41.43
2022-08-10T10:29:44.737Z,41.11
2022-08-10T10:32:00.558Z,40.79
2022-08-10T10:34:39.295Z,40.30
2022-08-10T10:37:13.436Z,39.79
2022-08-10T10:39:49.070Z,38.99
2022-08-10T10:42:44.801Z,39.03
2022-08-10T10:45:22.604Z,39.43
2022-08-10T10:48:17.788Z,39.15
2022-08-10T10:51:10.264Z,38.98
2022-08-10T10:53:49.214Z,39.20
2022-08-10T10:56:29.679Z,39.51
2022-08-10T10:59:53.995Z,40.25
2022-08-10T11:02:21.958Z,40.33
2022-08-10T11:05:04.531Z,39.77
2022-08-10T11:07:39.732Z,40.34
2022-08-10T11:10:33.085Z,39.41
2022-08-10T11:14:24.341Z,39.49
2022-08-10T11:16:31.245Z,39.41
2022-08-10T11:19:11.933Z,39.28
2022-08-10T11:22:03.519Z,39.20
2022-08-10T11:24:49.763Z,39.15
2022-08-10T11:27:35.229Z,39.46
2022-08-10T11:30:13.210Z,39.30
2022-08-10T11:33:05.488Z,38.55
2022-08-10T11:35:47.026Z,38.52
2022-08-10T11:38:29.773Z,38.07
2022-08-10T11:42:10.114Z,37.77
2022-08-10T11:44:13.267Z,37.25
2022-08-10T11:46:49.781Z,36.78
2022-08-10T11:49:34.287Z,36.22
2022-08-10T11:52:15.933Z,35.97
2022-08-10T11:54:52.162Z,36.56
2022-08-10T11:57:54.130Z,36.66
2022-08-10T12:00:29.527Z,36.91
2022-08-10T12:03:07.497Z,37.27
2022-08-10T12:05:53.130Z,37.02
2022-08-10T12:10:05.907Z,36.48
2022-08-10T12:11:26.532Z,35.88
2022-08-10T12:14:22.572Z,35.22
2022-08-10T12:20:31.994Z,34.64
2022-08-10T12:23:21.164Z,34.27
2022-08-10T12:26:39.034Z,33.80
2022-08-10T12:29:44.184Z,32.69
2022-08-10T12:32:54.627Z,32.68
2022-08-10T12:35:56.079Z,32.24
2022-08-10T12:42:39.368Z,31.70
2022-08-10T12:45:25.966Z,31.95
2022-08-10T12:48:07.142Z,31.60
2022-08-10T12:51:30.998Z,31.12
2022-08-10T12:57:40.512Z,30.61
2022-08-10T13:00:17.917Z,30.34
2022-08-10T13:04:20.694Z,29.84
2022-08-10T13:06:40.411Z,29.91
2022-08-10T13:09:17.819Z,28.95
2022-08-10T13:12:37.875Z,29.68
2022-08-10T13:15:25.440Z,28.98
2022-08-10T13:24:44.452Z,28.13
2022-08-10T13:28:01.189Z,27.72
2022-08-10T13:34:39.095Z,29.17
2022-08-10T13:36:32.871Z,29.07
2022-08-10T13:39:58.870Z,29.17
2022-08-10T13:46:31.418Z,29.05
2022-08-10T13:49:09.503Z,28.55
2022-08-10T13:51:56.636Z,28.23
2022-08-10T13:54:41.633Z,28.41
2022-08-10T13:57:31.366Z,28.57
2022-08-10T14:00:34.080Z,28.39
2022-08-10T14:03:13.194Z,28.80
2022-08-10T14:05:56.916Z,28.97
2022-08-10T14:08:39.543Z,29.38
2022-08-10T14:11:35.326Z,29.25
2022-08-10T14:14:17.799Z,28.87
2022-08-10T14:17:24.868Z,28.36
2022-08-10T14:20:03.392Z,27.71
2022-08-10T14:23:07.623Z,27.56
2022-08-10T14:25:56.225Z,27.37
2022-08-10T14:32:28.221Z,27.01
2022-08-10T14:36:19.160Z,26.27
2022-08-10T14:42:01.576Z,26.13
2022-08-10T14:45:28.845Z,25.51
2022-08-10T14:48:40.228Z,25.55
2022-08-10T14:51:17.033Z,26.48
2022-08-10T14:54:39.218Z,27.25
2022-08-10T14:57:15.928Z,28.12
2022-08-10T15:00:30.719Z,28.02
2022-08-10T15:03:59.070Z,27.91
2022-08-10T15:06:03.677Z,27.63
2022-08-10T15:08:40.235Z,27.16
2022-08-10T15:12:14.127Z,26.84
2022-08-10T15:14:38.730Z,26.79
2022-08-10T15:17:04.693Z,26.23
2022-08-10T15:20:03.120Z,25.45
2022-08-10T15:22:38.923Z,26.14
2022-08-10T15:29:23.067Z,26.13
2022-08-10T15:32:30.711Z,26.43
2022-08-10T15:35:51.840Z,26.86
2022-08-10T15:42:08.413Z,26.29
2022-08-10T15:44:49.522Z,26.04
2022-08-10T15:47:45.943Z,25.46
2022-08-10T15:50:31.238Z,25.29
2022-08-10T15:53:49.293Z,25.60
2022-08-10T15:56:38.136Z,25.45
2022-08-10T15:59:21.102Z,24.94
2022-08-10T16:02:16.012Z,25.06
2022-08-10T16:05:04.000Z,25.13
2022-08-10T16:07:47.972Z,25.36
2022-08-10T16:10:28.855Z,25.42
2022-08-10T16:13:03.113Z,25.44
2022-08-10T16:15:58.067Z,25.71
2022-08-10T16:18:32.060Z,25.37
2022-08-10T16:21:07.898Z,25.26
2022-08-10T16:23:43.168Z,24.99
2022-08-10T16:26:20.001Z,24.65
2022-08-10T16:28:56.848Z,25.83
2022-08-10T16:31:32.658Z,25.98
2022-08-10T16:34:09.540Z,25.55
2022-08-10T16:36:46.434Z,25.60
2022-08-10T16:39:59.427Z,26.40
2022-08-10T16:42:24.098Z,26.60
2022-08-10T16:45:22.876Z,26.78
2022-08-10T16:48:48.615Z,27.27
2022-08-10T16:55:24.736Z,27.64
2022-08-10T16:58:16.971Z,28.17
2022-08-10T17:00:56.559Z,28.54
2022-08-10T17:04:09.904Z,28.96
2022-08-10T17:07:17.507Z,29.47
2022-08-10T17:10:18.187Z,29.83
2022-08-10T17:13:03.338Z,30.32
2022-08-10T17:15:37.425Z,30.31
2022-08-10T17:18:35.965Z,30.55
2022-08-10T17:21:40.939Z,31.06
2022-08-10T17:24:34.694Z,31.48
2022-08-10T17:28:05.263Z,31.82
2022-08-10T17:30:57.811Z,31.98
2022-08-10T17:37:03.432Z,32.71
2022-08-10T17:40:04.394Z,33.02
2022-08-10T17:42:42.022Z,33.43
2022-08-10T17:46:02.482Z,33.66
2022-08-10T17:49:07.107Z,33.91
2022-08-10T17:51:47.356Z,34.09
2022-08-10T17:54:47.429Z,34.34
2022-08-10T17:57:21.713Z,34.64
2022-08-10T17:59:56.504Z,34.81
2022-08-10T18:02:37.347Z,35.07
2022-08-10T18:05:40.580Z,35.37
2022-08-10T18:08:46.841Z,35.59
2022-08-10T18:11:27.183Z,35.89
2022-08-10T18:14:04.812Z,36.15
2022-08-10T18:16:41.626Z,36.01
2022-08-10T18:19:14.950Z,36.25
2022-08-10T18:21:49.518Z,36.47
2022-08-10T18:24:25.011Z,36.72
2022-08-10T18:27:03.278Z,37.01
2022-08-10T18:29:39.500Z,37.21
2022-08-10T18:32:13.019Z,37.53
2022-08-10T18:34:46.756Z,37.74
2022-08-10T18:37:24.140Z,38.17
2022-08-10T18:39:59.516Z,38.36
2022-08-10T18:42:46.257Z,38.57
2022-08-10T18:45:21.397Z,38.84
2022-08-10T18:47:59.913Z,39.09
2022-08-10T18:50:35.504Z,39.38
2022-08-10T18:53:15.717Z,39.67
2022-08-10T18:56:08.783Z,40.12
2022-08-10T18:59:08.383Z,40.36
2022-08-10T19:01:55.719Z,40.56
2022-08-10T19:04:37.464Z,40.84
2022-08-10T19:07:30.508Z,41.01
2022-08-10T19:10:16.604Z,41.30
2022-08-10T19:13:03.023Z,41.52
2022-08-10T19:15:42.411Z,41.73
2022-08-10T19:18:24.539Z,41.94
2022-08-10T19:21:03.470Z,42.12
2022-08-10T19:23:43.932Z,42.34
2022-08-10T19:26:43.302Z,42.48
2022-08-10T19:30:07.912Z,42.70
2022-08-10T19:32:31.534Z,42.93
2022-08-10T19:35:12.894Z,43.18
2022-08-10T19:38:00.386Z,43.32
2022-08-10T19:40:46.421Z,43.60
2022-08-10T19:43:59.592Z,43.88
2022-08-10T19:46:29.567Z,44.36
2022-08-10T19:49:09.032Z,44.66
2022-08-10T19:52:05.011Z,44.86
2022-08-10T19:54:54.326Z,45.11
2022-08-10T19:57:33.200Z,45.37
2022-08-10T20:00:15.648Z,45.58
2022-08-10T20:03:11.960Z,45.82
2022-08-10T20:06:18.602Z,46.20
2022-08-10T20:08:55.399Z,46.59
2022-08-10T20:11:45.016Z,46.78
2022-08-10T20:14:26.048Z,46.97
2022-08-10T20:17:04.591Z,47.21
2022-08-10T20:19:52.858Z,47.53
2022-08-10T20:22:31.436Z,47.75
2022-08-10T20:25:07.977Z,48.04
2022-08-10T20:28:00.755Z,48.34
2022-08-10T20:30:37.881Z,48.73
2022-08-10T20:33:15.446Z,49.38
2022-08-10T20:35:54.714Z,49.94
2022-08-10T20:38:37.711Z,50.50
2022-08-10T20:41:21.307Z,50.47
2022-08-10T20:44:05.857Z,50.43
2022-08-10T20:46:44.073Z,50.28
2022-08-10T20:49:24.654Z,50.20
2022-08-10T20:52:02.336Z,50.36
2022-08-10T20:54:40.167Z,50.42
2022-08-10T20:57:55.758Z,50.47
2022-08-10T21:00:45.795Z,50.72
2022-08-10T21:03:34.369Z,51.14
2022-08-10T21:06:42.314Z,51.52
2022-08-10T21:09:42.541Z,51.69
2022-08-10T21:12:29.461Z,51.80
2022-08-10T21:15:09.049Z,52.25
2022-08-10T21:18:05.862Z,52.13
2022-08-10T21:20:53.846Z,52.42
2022-08-10T21:23:31.042Z,52.29
2022-08-10T21:26:09.931Z,52.65
2022-08-10T21:28:59.360Z,52.81
2022-08-10T21:31:52.606Z,52.82
2022-08-10T21:34:38.686Z,52.95
2022-08-10T21:37:20.356Z,53.17
2022-08-10T21:40:03.237Z,53.20
2022-08-10T21:43:05.237Z,53.55
2022-08-10T21:46:08.121Z,53.62
2022-08-10T21:49:03.451Z,53.75
2022-08-10T21:52:02.045Z,53.96
2022-08-10T21:55:00.364Z,54.14
2022-08-10T21:58:03.369Z,54.33
2022-08-10T22:00:55.360Z,54.45
2022-08-10T22:03:47.295Z,55.21
2022-08-10T22:06:52.074Z,55.40
2022-08-10T22:09:51.788Z,55.44
2022-08-10T22:12:51.214Z,55.66
2022-08-10T22:16:05.324Z,55.56
2022-08-10T22:19:02.876Z,55.83
2022-08-10T22:22:04.394Z,55.89
2022-08-10T22:25:16.906Z,56.13
2022-08-10T22:28:12.376Z,56.41
2022-08-10T22:31:32.272Z,56.31
2022-08-10T22:34:39.282Z,56.60
2022-08-10T22:37:47.881Z,56.75
2022-08-10T22:40:40.639Z,57.25
2022-08-10T22:43:42.106Z,57.30
2022-08-10T22:46:37.875Z,57.44
2022-08-10T22:49:11.515Z,57.51
2022-08-10T22:51:55.735Z,57.73
2022-08-10T22:54:52.923Z,58.12
2022-08-10T22:57:43.579Z,58.25
2022-08-10T23:00:19.303Z,58.61
2022-08-10T23:02:56.691Z,58.76
2022-08-10T23:05:34.121Z,59.43
2022-08-10T23:08:29.632Z,59.40
2022-08-10T23:11:08.697Z,59.59
2022-08-10T23:13:44.653Z,59.60
2022-08-10T23:16:40.718Z,59.82
2022-08-10T23:19:15.134Z,59.74
2022-08-10T23:22:04.048Z,59.77
2022-08-10T23:24:47.008Z,59.92
2022-08-10T23:27:38.387Z,60.53
2022-08-10T23:30:18.081Z,60.89
2022-08-10T23:32:53.004Z,60.86
2022-08-10T23:36:28.106Z,60.88
2022-08-10T23:38:25.983Z,61.09
2022-08-10T23:41:02.686Z,61.05
2022-08-10T23:44:02.735Z,61.08
2022-08-10T23:46:34.308Z,61.37
2022-08-10T23:49:09.302Z,61.50
2022-08-10T23:51:54.920Z,61.67
2022-08-10T23:54:29.549Z,61.90
2022-08-10T23:57:05.056Z,62.15
2022-08-10T23:59:38.861Z,62.28
